Position Fahrer Laps Zeit Diff Beste Runde Fahrzeug Status Gesamt Bonuspunkte Strafpunkte
1 Florian Maak 15 26:16.154 - 1:43.845 BMW M240i Cup Beendet 76 0 0
2 Domi Hofmann 15 26:16.965 0:00.811 1:43.483 BMW M240i Cup Beendet 71 0 0
3 Luis Roters 15 26:17.323 0:01.169 1:44.071 BMW M240i Cup Beendet 67 0 0
4 Noah Cebulla 15 26:17.711 0:01.557 1:43.830 BMW M240i Cup Beendet 64 0 0
5 Elias Ferfer 15 26:25.738 0:09.584 1:43.739 BMW M240i Cup Beendet 62 0 0
6 Fabian Wilke 15 26:34.111 0:17.957 1:45.010 BMW M240i Cup Beendet 60 0 0
7 Alessio Bender 15 26:35.869 0:19.715 1:44.306 BMW M240i Cup Beendet 58 0 0
8 Pascal Reihe 15 26:37.700 0:21.546 1:44.597 BMW M240i Cup Beendet 56 0 0
9 Lukas König 15 26:38.347 0:22.193 1:45.043 BMW M240i Cup Beendet 54 0 0
10 Maximilian Maass 15 26:38.684 0:22.530 1:44.437 BMW M240i Cup Beendet 52 0 0
11 Jan Riedel 15 26:40.401 0:24.247 1:44.663 BMW M240i Cup Beendet 50 0 0
12 Florian Ponath 15 26:42.432 0:26.278 1:45.350 BMW M240i Cup Beendet 49 0 0
13 Lars Braun 15 26:42.588 0:26.434 1:44.795 BMW M240i Cup Beendet 48 0 0
14 Gero Mulkau 15 26:45.276 0:29.122 1:44.855 BMW M240i Cup Beendet 47 0 0
15 Sascha Brandl 15 26:45.412 0:29.258 1:44.587 BMW M240i Cup Beendet 46 0 0
16 Andreas Wagner 15 26:49.410 0:33.256 1:45.628 BMW M240i Cup Beendet 45 0 0
17 Sebastian Ponath 15 26:50.461 0:34.307 1:45.314 BMW M240i Cup Beendet 44 0 0
18 Maximilian Gladki 15 27:31.516 1:15.362 1:46.166 BMW M240i Cup Beendet 43 0 0
19 Damian Gladki 15 27:40.801 1:24.647 1:47.423 BMW M240i Cup Beendet 42 0 0

Rennverlauf

Die schnellsten 5 pro Runde

Runde 1

Pos Rennpos Fahrer Zeit S1 S2 S3 Diff
1 1 Luis Roters 1:53.073 0:33.782 0:50.616 0:28.675 -
2 2 Fabian Wilke 1:54.388 0:34.652 0:50.635 0:29.101 0:01.315
3 3 Lukas König 1:54.470 0:33.696 0:51.831 0:28.943 0:01.397
4 4 Noah Cebulla 1:55.652 0:35.165 0:50.886 0:29.601 0:02.579
5 5 Florian Maak 1:55.834 0:35.306 0:50.918 0:29.610 0:02.761

Runde 2

Pos Rennpos Fahrer Zeit S1 S2 S3 Diff
1 1 Luis Roters 1:44.499 0:26.342 0:49.460 0:28.697 -
2 3 Noah Cebulla 1:45.073 0:26.705 0:49.744 0:28.624 0:00.574
3 5 Domi Hofmann 1:45.231 0:26.868 0:49.590 0:28.773 0:00.732
4 4 Florian Maak 1:45.270 0:26.708 0:49.743 0:28.819 0:00.771
5 2 Fabian Wilke 1:45.463 0:26.933 0:49.438 0:29.092 0:00.964

Runde 3

Pos Rennpos Fahrer Zeit S1 S2 S3 Diff
1 18 Alessio Bender 1:44.887 0:26.411 0:49.811 0:28.665 -
2 3 Florian Maak 1:45.138 0:26.208 0:50.260 0:28.670 0:00.251
3 1 Luis Roters 1:45.138 0:26.460 0:49.724 0:28.954 0:00.251
4 5 Elias Ferfer 1:45.504 0:26.330 0:50.423 0:28.751 0:00.617
5 2 Fabian Wilke 1:45.513 0:26.519 0:49.793 0:29.201 0:00.626

Runde 4

Pos Rennpos Fahrer Zeit S1 S2 S3 Diff
1 5 Elias Ferfer 1:44.656 0:26.702 0:49.519 0:28.435 -
2 2 Florian Maak 1:44.786 0:26.667 0:49.153 0:28.966 0:00.130
3 4 Noah Cebulla 1:44.843 0:26.579 0:49.478 0:28.786 0:00.187
4 8 Pascal Reihe 1:45.059 0:26.485 0:49.792 0:28.782 0:00.403
5 6 Domi Hofmann 1:45.100 0:26.728 0:49.730 0:28.642 0:00.444

Runde 5

Pos Rennpos Fahrer Zeit S1 S2 S3 Diff
1 2 Florian Maak 1:43.989 0:26.246 0:49.190 0:28.553 -
2 3 Noah Cebulla 1:44.294 0:26.526 0:49.184 0:28.584 0:00.305
3 1 Luis Roters 1:44.625 0:26.361 0:49.392 0:28.872 0:00.636
4 8 Pascal Reihe 1:44.713 0:26.503 0:49.325 0:28.885 0:00.724
5 5 Domi Hofmann 1:44.770 0:26.375 0:49.402 0:28.993 0:00.781

Runde 6

Pos Rennpos Fahrer Zeit S1 S2 S3 Diff
1 3 Noah Cebulla 1:44.223 0:26.359 0:49.262 0:28.602 -
2 2 Florian Maak 1:44.224 0:26.437 0:49.045 0:28.742 -
3 4 Domi Hofmann 1:44.379 0:26.340 0:49.351 0:28.688 0:00.156
4 15 Alessio Bender 1:44.396 0:26.367 0:49.337 0:28.692 0:00.173
5 1 Luis Roters 1:44.476 0:26.437 0:49.383 0:28.656 0:00.253

Runde 7

Pos Rennpos Fahrer Zeit S1 S2 S3 Diff
1 4 Domi Hofmann 1:43.671 0:26.203 0:49.050 0:28.418 -
2 8 Elias Ferfer 1:44.000 0:26.267 0:49.230 0:28.503 0:00.329
3 3 Noah Cebulla 1:44.053 0:26.244 0:49.261 0:28.548 0:00.382
4 2 Florian Maak 1:44.181 0:26.398 0:49.207 0:28.576 0:00.510
5 6 Pascal Reihe 1:44.826 0:26.328 0:49.648 0:28.850 0:01.155

Runde 8

Pos Rennpos Fahrer Zeit S1 S2 S3 Diff
1 3 Noah Cebulla 1:43.960 0:26.371 0:49.162 0:28.427 -
2 2 Florian Maak 1:44.179 0:26.225 0:49.406 0:28.548 0:00.219
3 9 Maximilian Maass 1:44.437 0:26.326 0:49.477 0:28.634 0:00.477
4 1 Luis Roters 1:44.455 0:26.349 0:49.441 0:28.665 0:00.495
5 4 Domi Hofmann 1:44.593 0:26.388 0:49.499 0:28.706 0:00.633

Runde 9

Pos Rennpos Fahrer Zeit S1 S2 S3 Diff
1 4 Domi Hofmann 1:43.483 0:26.124 0:48.964 0:28.395 -
2 7 Elias Ferfer 1:43.959 0:26.334 0:49.130 0:28.495 0:00.476
3 1 Luis Roters 1:44.360 0:26.339 0:49.302 0:28.719 0:00.877
4 2 Florian Maak 1:44.563 0:26.632 0:49.329 0:28.602 0:01.080
5 9 Maximilian Maass 1:44.725 0:26.330 0:49.707 0:28.688 0:01.242

Runde 10

Pos Rennpos Fahrer Zeit S1 S2 S3 Diff
1 4 Domi Hofmann 1:43.825 0:26.159 0:49.199 0:28.467 -
2 3 Noah Cebulla 1:43.882 0:26.171 0:49.249 0:28.462 0:00.057
3 2 Florian Maak 1:44.050 0:26.124 0:49.351 0:28.575 0:00.225
4 1 Luis Roters 1:44.106 0:26.211 0:49.288 0:28.607 0:00.281
5 11 Alessio Bender 1:44.306 0:26.285 0:49.514 0:28.507 0:00.481

Runde 11

Pos Rennpos Fahrer Zeit S1 S2 S3 Diff
1 3 Domi Hofmann 1:43.789 0:26.070 0:49.248 0:28.471 -
2 2 Florian Maak 1:43.960 0:26.078 0:49.316 0:28.566 0:00.171
3 1 Luis Roters 1:44.071 0:26.248 0:49.293 0:28.530 0:00.282
4 10 Alessio Bender 1:44.322 0:26.413 0:49.252 0:28.657 0:00.533
5 4 Noah Cebulla 1:44.927 0:26.290 0:50.175 0:28.462 0:01.138

Runde 12

Pos Rennpos Fahrer Zeit S1 S2 S3 Diff
1 5 Elias Ferfer 1:43.739 0:26.092 0:49.059 0:28.588 -
2 2 Florian Maak 1:43.969 0:26.078 0:49.284 0:28.607 0:00.230
3 3 Domi Hofmann 1:44.163 0:26.344 0:49.239 0:28.580 0:00.424
4 4 Noah Cebulla 1:44.263 0:26.143 0:49.190 0:28.930 0:00.524
5 1 Luis Roters 1:44.325 0:26.258 0:49.406 0:28.661 0:00.586

Runde 13

Pos Rennpos Fahrer Zeit S1 S2 S3 Diff
1 3 Domi Hofmann 1:43.635 0:26.144 0:49.042 0:28.449 -
2 4 Noah Cebulla 1:43.830 0:26.223 0:49.090 0:28.517 0:00.195
3 2 Florian Maak 1:43.847 0:26.079 0:49.194 0:28.574 0:00.212
4 5 Elias Ferfer 1:44.002 0:26.157 0:49.103 0:28.742 0:00.367
5 10 Alessio Bender 1:44.321 0:26.328 0:49.293 0:28.700 0:00.686

Runde 14

Pos Rennpos Fahrer Zeit S1 S2 S3 Diff
1 3 Domi Hofmann 1:43.675 0:26.180 0:49.113 0:28.382 -
2 2 Florian Maak 1:43.845 0:26.309 0:49.077 0:28.459 0:00.170
3 4 Noah Cebulla 1:44.003 0:26.252 0:49.154 0:28.597 0:00.328
4 5 Elias Ferfer 1:44.050 0:26.141 0:49.383 0:28.526 0:00.375
5 1 Luis Roters 1:44.188 0:26.176 0:49.352 0:28.660 0:00.513

Runde 15

Pos Rennpos Fahrer Zeit S1 S2 S3 Diff
1 5 Elias Ferfer 1:43.892 0:26.056 0:49.244 0:28.592 -
2 4 Noah Cebulla 1:44.236 0:26.296 0:49.406 0:28.534 0:00.344
3 1 Florian Maak 1:44.309 0:26.293 0:49.243 0:28.773 0:00.417
4 15 Sascha Brandl 1:44.587 0:26.381 0:49.514 0:28.692 0:00.695
5 2 Domi Hofmann 1:44.671 0:26.299 0:49.698 0:28.674 0:00.779

SERVER

0 / 61
virtualracing.org #1 GTM
Training 1Lime Rock Park -- Uphill Chicane
0 / 81
virtualracing.org #3 FS
Training 1Oulton Park International NC
0 / 81
virtualracing.org #4 LSM
Training 1Spa-Francorchamps Endurance
0 / 34
virtualracing.org #5 VRF1S
Training 1Zandvoort 2021
1 / 34
virtualracing.org #6 VRCS
Training 1Donington Park National Circuit
0 / 81
virtualracing.org #P1 BTCC
Training 1Oulton Park International NC
0 / 81
virtualracing.org #P2 CA
Training 1Silverstone Grand Prix
0 / 34
virtualracing.org #P3 Mini
Training 1Silverstone National
0 / 33
virtualracing.org #P4 IR18
Training 1Indianapolis Road Course
0/31
virtualracing.org#4 GTC Training Standard
TrainingDaytona International Speedway - Road Course
0/31
virtualracing.org#5 GTC Training A
TrainingDaytona International Speedway - Road Course
0/24
virtualracing.org#30 ALT Training
TrainingFuji Speedway - Grand Prix Circuit 1968
0/32
virtualracing.org#33 GTC Starttest
TrainingDaytona International Speedway - Road Course